Chesaning, Michigan
Current Conditions -  °F | °C
As of 11:14 AM on Saturday 25 Oct 2014 (Local Time) from KRNP Reporting Station
Haze Haze  
Wind Chill: 57°   Ceiling: 2000
Heat Index: 57°   Visibility: 5mi
Dew Point: 52°   Wind: 14mph
Humidity: 85%   Direction: 260°W
Pressure: 29.81"   Gusts: 18mph
Location:  43.18°N, 84.11°W
Report Text: KRNP 251514Z AUTO 26012G16KT 5SM HZ OVC020 14/11 A2981 RMK AO2 T01380113
Loading
Personal Weather Stations






























Interactive Weather Map
Tropical Storm Tracking
New forecast layout! Learn more

10-Day Weather Forecast

Advertisements
Track Severe Weather on mobile